Rollo, Illinois
Current Conditions -  °F | °C
As of 12:55 PM on Thursday 23 Oct 2014 (Local Time) from KVYS Reporting Station
Clear Clear  
Wind Chill: 58°   Ceiling: Unl
Heat Index: 58°   Visibility: 10mi
Dew Point: 43°   Wind: 14mph
Humidity: 58%   Direction: 180°S
Pressure: 30.14"   Gusts: NA
Location:  41.5869°N, 88.887°W
Report Text: KVYS 231755Z AUTO 18012KT 10SM CLR 15/06 A3014 RMK AO2 T01450062 10145 20026
Loading
Personal Weather Stations






























Interactive Weather Map
Tropical Storm Tracking
New forecast layout! Learn more

10-Day Weather Forecast

Advertisements
Track Severe Weather on mobile